Weather History for Red Wing, MN

Change the Weather History Date:

Sunday, February 10, 2013

  Actual Average Record
Temperature  
Mean Temperature 32 °F -  
Max Temperature 35 °F 27 °F 48 °F (2009)
Min Temperature 30 °F 11 °F -20 °F (2014)
Degree Days  
Heating Degree Days 32    
Moisture  
Dew Point 30 °F    
Average Humidity 88    
Maximum Humidity 100    
Minimum Humidity 80    
Precipitation  
Precipitation 0.57 in - - ()
Sea Level Pressure  
Sea Level Pressure 29.52 in    
Wind  
Wind Speed 9 mph (ESE)    
Max Wind Speed 16 mph    
Max Gust Speed 22 mph    
Visibility 4 miles    
Events Rain , Snow    
Averages and records for this station are not official NWS values.
T = Trace of Precipitation, MM = Missing Value Source: NWS Daily Summary

Daily Weather History Graph

Daily Weather History Graph

Search for Another Location

Airport:

Trip Planner

Search our weather history database for the weather conditions in past years. The results will help you decide how hot, cold, wet, or windy it might be!

Date:

Astronomy

Feb. 10, 2013 Rise Set
Actual Time 7:16 AM CST 5:32 PM CST
Civil Twilight 6:46 AM CST 6:02 PM CST
Nautical Twilight 6:12 AM CST 6:36 PM CST
Astronomical Twilight 5:38 AM CST 7:10 PM CST
Moon 7:03 AM CST (2/10) 6:27 PM CST (2/10)
Length of Visible Light 11h 15m
Length of Day
10h 15m
New Moon, 0% of the Moon is Illuminated
Feb 10
New Moon
Feb 17
First Quarter
Feb 25
Full
Mar 4
Last Quarter
Mar 11
New

Hourly Weather History & Observations

Time (CST) Temp. Windchill Dew Point Humidity Pressure Visibility Wind Dir Wind Speed Gust Speed Precip Events Conditions
12:15 AM 30.2 °F 24.3 °F 24.8 °F 80% 29.95 in 7.0 mi ESE 5.8 mph - N/A   Overcast
12:35 AM 30.2 °F 23.4 °F 24.8 °F 80% 29.96 in 7.0 mi SE 6.9 mph - N/A   Overcast
12:55 AM 30.2 °F 22.6 °F 24.8 °F 80% 29.94 in 7.0 mi ESE 8.1 mph - N/A   Overcast
1:15 AM 30.2 °F 21.9 °F 24.8 °F 80% 29.94 in 7.0 mi ESE 9.2 mph - N/A   Overcast
1:35 AM 30.2 °F 20.8 °F 24.8 °F 80% 29.92 in 7.0 mi ESE 11.5 mph - N/A   Overcast
1:55 AM 30.2 °F 21.3 °F 24.8 °F 80% 29.92 in 7.0 mi SE 10.4 mph 16.1 mph N/A   Overcast
2:15 AM 30.2 °F 20.8 °F 24.8 °F 80% 29.91 in 7.0 mi ESE 11.5 mph - N/A   Overcast
2:35 AM 30.2 °F 20.2 °F 24.8 °F 80% 29.89 in 7.0 mi ESE 12.7 mph - N/A   Overcast
2:55 AM 30.2 °F 21.3 °F 24.8 °F 80% 29.88 in 7.0 mi ESE 10.4 mph - N/A   Overcast
3:15 AM 30.2 °F 20.2 °F 24.8 °F 80% 29.86 in 5.0 mi ESE 12.7 mph - N/A   Haze
3:35 AM 30.2 °F 21.3 °F 24.8 °F 80% 29.85 in 5.0 mi ESE 10.4 mph - N/A   Haze
3:55 AM 30.2 °F 20.8 °F 24.8 °F 80% 29.83 in 5.0 mi ESE 11.5 mph - N/A   Haze
4:15 AM 30.2 °F 21.3 °F 24.8 °F 80% 29.83 in 5.0 mi ESE 10.4 mph - N/A   Haze
4:35 AM 30.2 °F 20.2 °F 24.8 °F 80% 29.82 in 5.0 mi ESE 12.7 mph 19.6 mph N/A   Haze
4:55 AM 30.2 °F 19.8 °F 24.8 °F 80% 29.79 in 5.0 mi East 13.8 mph 19.6 mph N/A   Mostly Cloudy
5:15 AM 30.2 °F 20.2 °F 26.6 °F 86% 29.77 in 5.0 mi East 12.7 mph 17.3 mph N/A   Mostly Cloudy
5:35 AM 30.2 °F 18.9 °F 24.8 °F 80% 29.74 in 5.0 mi ESE 16.1 mph 20.7 mph N/A   Haze
5:55 AM 30.2 °F 19.8 °F 26.6 °F 86% 29.73 in 5.0 mi East 13.8 mph 18.4 mph N/A   Overcast
6:15 AM 30.2 °F 21.3 °F 26.6 °F 86% 29.72 in 5.0 mi East 10.4 mph 17.3 mph N/A   Overcast
6:35 AM 30.2 °F 20.8 °F 26.6 °F 86% 29.71 in 5.0 mi ESE 11.5 mph - N/A   Overcast
6:55 AM 30.2 °F 20.2 °F 26.6 °F 86% 29.71 in 5.0 mi ESE 12.7 mph - N/A   Overcast
7:15 AM 30.2 °F 20.2 °F 26.6 °F 86% 29.68 in 5.0 mi East 12.7 mph 19.6 mph N/A   Overcast
7:35 AM 30.2 °F 20.8 °F 26.6 °F 86% 29.65 in 5.0 mi East 11.5 mph 19.6 mph N/A   Overcast
7:55 AM 30.2 °F 21.9 °F 26.6 °F 86% 29.66 in 4.0 mi East 9.2 mph - N/A   Overcast
8:15 AM 30.2 °F 21.9 °F 26.6 °F 86% 29.67 in 4.0 mi ESE 9.2 mph 17.3 mph N/A   Haze
8:35 AM 30.2 °F 21.3 °F 26.6 °F 86% 29.64 in 4.0 mi East 10.4 mph 17.3 mph N/A   Overcast
8:55 AM 30.2 °F 19.8 °F 26.6 °F 86% 29.60 in 4.0 mi East 13.8 mph 18.4 mph N/A   Overcast
9:15 AM 30.2 °F 19.3 °F 26.6 °F 86% 29.61 in 4.0 mi ESE 15.0 mph 21.9 mph N/A   Overcast
9:35 AM 32.0 °F 22.5 °F 28.4 °F 87% 29.58 in 3.0 mi ESE 12.7 mph 20.7 mph N/A   Overcast
9:55 AM 32.0 °F 23.0 °F 28.4 °F 87% 29.55 in 2.0 mi East 11.5 mph 18.4 mph 0.03 in   Overcast
10:15 AM 32.0 °F 23.0 °F 30.2 °F 93% 29.53 in 2.5 mi East 11.5 mph - N/A   Overcast
10:35 AM 33.8 °F 24.3 °F 30.2 °F 87% 29.52 in 2.5 mi ESE 13.8 mph - N/A Snow Light Snow
10:55 AM 33.8 °F 23.5 °F 30.2 °F 87% 29.46 in 2.0 mi East 16.1 mph 20.7 mph 0.02 in   Overcast
11:15 AM 33.8 °F 25.3 °F 30.2 °F 87% 29.48 in 3.0 mi SE 11.5 mph - N/A   Overcast
11:35 AM 33.8 °F 25.8 °F 30.2 °F 87% 29.50 in 1.8 mi SE 10.4 mph - 0.03 in   Overcast
12:15 PM 33.8 °F 25.3 °F 30.2 °F 87% 29.44 in 0.8 mi ESE 11.5 mph - 0.03 in Snow Light Snow
12:35 PM 33.8 °F 26.4 °F 30.2 °F 87% 29.43 in 0.2 mi ESE 9.2 mph - 0.04 in Snow Snow
12:55 PM 33.8 °F 25.8 °F 30.2 °F 87% 29.41 in 0.2 mi ESE 10.4 mph - 0.06 in Snow Snow
1:15 PM 33.8 °F 27.0 °F 32.0 °F 93% 29.39 in 0.8 mi ESE 8.1 mph - 0.04 in Snow Light Snow
1:35 PM 33.8 °F 27.0 °F 32.0 °F 93% 29.38 in 1.8 mi ESE 8.1 mph - 0.05 in Snow Light Snow
1:55 PM 33.8 °F 25.8 °F 32.0 °F 93% 29.38 in 5.0 mi ESE 10.4 mph - N/A Snow Light Snow
2:15 PM 33.8 °F 26.4 °F 32.0 °F 93% 29.36 in 3.0 mi ESE 9.2 mph - N/A   Overcast
2:35 PM 33.8 °F 25.8 °F 32.0 °F 93% 29.35 in 1.2 mi ESE 10.4 mph 16.1 mph N/A Snow Light Snow
2:54 PM 33.8 °F 25.3 °F 33.8 °F 100% 29.34 in 3.0 mi ESE 11.5 mph - N/A   Overcast
3:14 PM 35.6 °F 27.5 °F 33.8 °F 93% 29.33 in 4.0 mi ESE 11.5 mph - N/A Snow Light Snow
3:35 PM 35.6 °F 27.5 °F 33.8 °F 93% 29.32 in 4.0 mi ESE 11.5 mph - N/A Rain Rain
3:55 PM 35.6 °F 28.6 °F 33.8 °F 93% 29.32 in 3.0 mi ESE 9.2 mph - N/A Snow Light Snow
4:15 PM 35.6 °F 28.6 °F 33.8 °F 93% 29.31 in 4.0 mi ESE 9.2 mph - N/A   Overcast
4:35 PM 35.6 °F 28.6 °F 33.8 °F 93% 29.30 in 4.0 mi ESE 9.2 mph - N/A   Overcast
4:55 PM 35.6 °F 28.0 °F 33.8 °F 93% 29.30 in 4.0 mi ESE 10.4 mph - N/A   Overcast
5:15 PM 35.6 °F 31.7 °F 33.8 °F 93% 29.29 in 5.0 mi East 4.6 mph - N/A   Overcast
5:34 PM 35.6 °F 29.9 °F 33.8 °F 93% 29.28 in 7.0 mi ESE 6.9 mph - N/A   Light Drizzle
5:55 PM 35.6 °F 30.7 °F 33.8 °F 93% 29.28 in 4.0 mi East 5.8 mph - N/A Rain Light Rain
6:15 PM 35.6 °F 29.9 °F 33.8 °F 93% 29.28 in 3.0 mi East 6.9 mph - 0.01 in Rain Light Rain
6:35 PM 35.6 °F 32.8 °F 33.8 °F 93% 29.28 in 2.5 mi East 3.5 mph - 0.04 in Rain Rain
6:55 PM 35.6 °F 32.8 °F 33.8 °F 93% 29.27 in 3.0 mi ENE 3.5 mph - 0.09 in Rain Rain
7:15 PM 35.6 °F 31.7 °F 33.8 °F 93% 29.27 in 5.0 mi ENE 4.6 mph - 0.02 in Rain Light Rain
7:35 PM 35.6 °F 32.8 °F 33.8 °F 93% 29.26 in 4.0 mi ENE 3.5 mph - 0.04 in Rain Rain
7:55 PM 35.6 °F 31.7 °F 33.8 °F 93% 29.25 in 4.0 mi ENE 4.6 mph - 0.07 in Rain Rain
8:15 PM 35.6 °F - 33.8 °F 93% 29.25 in 5.0 mi Calm Calm - 0.01 in Rain Light Rain
8:35 PM 35.6 °F 32.8 °F 33.8 °F 93% 29.24 in 4.0 mi ENE 3.5 mph - 0.03 in Rain Light Rain
8:55 PM 35.6 °F - 33.8 °F 93% 29.24 in 4.0 mi Calm Calm - 0.03 in Rain Light Rain
9:15 PM 33.8 °F - 33.8 °F 100% 29.24 in 1.8 mi Calm Calm - N/A   Light Drizzle
9:35 PM 35.6 °F - 33.8 °F 93% 29.24 in 2.5 mi Calm Calm - N/A Rain Light Rain
9:55 PM 35.6 °F 29.9 °F 33.8 °F 93% 29.24 in 4.0 mi WSW 6.9 mph - 0.02 in Rain Rain
10:14 PM 33.8 °F 29.6 °F 32.0 °F 93% 29.25 in 2.5 mi West 4.6 mph - 0.02 in Snow Light Snow
10:35 PM 33.8 °F - 32.0 °F 93% 29.25 in 1.2 mi Calm Calm - 0.05 in Snow Light Snow
10:55 PM 33.8 °F - 32.0 °F 93% 29.25 in 0.8 mi Calm Calm - 0.08 in Snow Snow
11:15 PM 33.8 °F - 32.0 °F 93% 29.25 in 0.5 mi Calm Calm - 0.03 in Snow Snow
11:35 PM 33.8 °F - 30.2 °F 87% 29.26 in 0.8 mi Calm Calm - 0.06 in Snow Snow
11:55 PM 32.0 °F 28.7 °F 30.2 °F 93% 29.26 in 1.0 mi WNW 3.5 mph - 0.09 in Snow Light Snow